Time;durP1;ratioP1;P1;durP2;ratioP2;P2;SDS_P1;SDS_P2;PMS_P1;PMS_P2;Temp;Humidity;BMP_temperature;BMP_pressure;BME280_temperature;BME280_humidity;BME280_pressure;Samples;Min_cycle;Max_cycle;Signal;HPM_P1;HPM_P2
2022/07/18 00:00:28;;;;;;;15.70;11.98;;;;;;;17.77;64.11;102373.13;5026044;28;20041;-65
2022/07/18 00:02:53;;;;;;;13.70;11.80;;;;;;;17.75;63.22;102369.81;5017125;28;20060;-65
2022/07/18 00:05:18;;;;;;;15.63;11.85;;;;;;;17.75;62.67;102364.59;5023246;28;20017;-68
2022/07/18 00:07:43;;;;;;;15.40;11.38;;;;;;;17.69;62.51;102367.72;5019968;28;20041;-65
2022/07/18 00:10:09;;;;;;;13.27;11.30;;;;;;;17.57;62.74;102342.53;5027211;28;20044;-65
2022/07/18 00:12:34;;;;;;;13.30;11.05;;;;;;;17.64;62.81;102356.78;5022027;28;20030;-69
2022/07/18 00:15:00;;;;;;;13.38;11.02;;;;;;;17.60;62.62;102347.50;5026784;28;20041;-65
2022/07/18 00:17:25;;;;;;;15.38;11.85;;;;;;;17.64;63.39;102346.28;5023885;28;20029;-67
2022/07/18 00:19:51;;;;;;;15.68;12.45;;;;;;;17.68;63.63;102350.31;5015945;28;20032;-70
2022/07/18 00:22:16;;;;;;;16.42;12.73;;;;;;;17.62;64.40;102350.84;5022369;28;20021;-66
2022/07/18 00:24:42;;;;;;;14.30;12.35;;;;;;;17.64;64.63;102356.78;5021981;28;20021;-64
2022/07/18 00:27:07;;;;;;;13.93;11.77;;;;;;;17.62;64.55;102350.84;5020304;28;20470;-65
2022/07/18 00:29:36;;;;;;;13.35;11.30;;;;;;;17.61;64.75;102349.19;5024755;28;20025;-64
2022/07/18 00:32:04;;;;;;;13.63;12.02;;;;;;;17.44;65.75;102348.88;5013504;28;20575;-65
2022/07/18 00:34:29;;;;;;;13.27;11.30;;;;;;;17.56;64.41;102346.97;5022211;28;20501;-66
2022/07/18 00:36:55;;;;;;;12.70;10.88;;;;;;;17.47;64.66;102340.72;5025861;28;20045;-65
2022/07/18 00:39:20;;;;;;;14.30;11.35;;;;;;;17.48;65.01;102329.25;5021639;28;20033;-65
2022/07/18 00:41:49;;;;;;;12.73;10.60;;;;;;;17.46;64.57;102336.44;5015572;28;20029;-66
2022/07/18 00:44:20;;;;;;;14.30;10.95;;;;;;;17.40;64.59;102331.72;5026581;28;20529;-68
2022/07/18 00:46:45;;;;;;;12.35;10.38;;;;;;;17.45;63.99;102334.78;5010126;28;20364;-64
2022/07/18 00:49:11;;;;;;;13.23;9.95;;;;;;;17.43;62.95;102320.97;5024352;28;20137;-67
2022/07/18 00:51:38;;;;;;;14.20;9.82;;;;;;;17.32;63.06;102323.69;5020281;28;20520;-64
2022/07/18 00:54:03;;;;;;;12.35;9.80;;;;;;;17.39;62.94;102316.97;5023262;28;20115;-67
2022/07/18 00:56:29;;;;;;;12.07;9.80;;;;;;;17.26;62.93;102318.97;5022362;28;20092;-64
2022/07/18 00:58:54;;;;;;;11.82;9.70;;;;;;;17.31;62.33;102322.00;5021519;28;20021;-65
2022/07/18 01:04:04;;;;;;;10.13;8.88;;;;;;;17.14;62.51;102320.00;5026404;28;20048;-68
2022/07/18 01:06:29;;;;;;;14.15;8.85;;;;;;;17.15;61.98;102317.28;5026359;28;20369;-66
2022/07/18 01:08:57;;;;;;;12.15;8.77;;;;;;;17.03;61.34;102314.84;5026027;28;20513;-64
2022/07/18 01:11:23;;;;;;;11.67;8.70;;;;;;;17.09;61.01;102316.97;5026505;28;20041;-65
2022/07/18 01:13:50;;;;;;;11.00;8.50;;;;;;;17.05;62.07;102324.28;5016419;28;20544;-64
2022/07/18 01:16:17;;;;;;;11.27;8.13;;;;;;;17.08;61.75;102315.31;5019765;28;20029;-69
2022/07/18 01:18:49;;;;;;;13.60;9.23;;;;;;;17.02;61.94;102311.41;5017082;28;20532;-67
2022/07/18 01:21:15;;;;;;;11.65;8.40;;;;;;;17.02;62.51;102315.81;5026447;28;20068;-64
2022/07/18 01:23:41;;;;;;;10.57;8.80;;;;;;;17.01;62.09;102315.00;5022310;28;20068;-65
2022/07/18 01:26:07;;;;;;;12.05;8.80;;;;;;;16.94;62.49;102309.44;5017217;28;20033;-67
2022/07/18 01:28:32;;;;;;;11.02;8.90;;;;;;;16.92;62.46;102300.91;5022452;28;20074;-65
2022/07/18 01:30:57;;;;;;;12.73;8.73;;;;;;;16.86;63.29;102296.19;5022978;28;20013;-64
2022/07/18 01:33:23;;;;;;;11.05;8.70;;;;;;;16.92;62.92;102295.66;5017129;28;20145;-65
2022/07/18 01:35:48;;;;;;;10.25;8.18;;;;;;;16.90;62.92;102308.03;5032414;28;20825;-65
2022/07/18 01:38:14;;;;;;;10.82;8.40;;;;;;;16.80;63.18;102298.47;5030206;28;20028;-66
2022/07/18 01:40:39;;;;;;;10.85;9.02;;;;;;;16.72;63.32;102299.94;5025508;28;20029;-64
2022/07/18 01:43:05;;;;;;;10.23;8.38;;;;;;;16.77;63.89;102307.44;5023341;28;20465;-65
2022/07/18 01:45:30;;;;;;;12.40;8.60;;;;;;;16.81;63.84;102308.84;5020672;28;20564;-64
2022/07/18 01:47:56;;;;;;;12.07;8.27;;;;;;;16.80;63.82;102311.56;5022085;28;20104;-65
2022/07/18 01:50:21;;;;;;;12.25;8.82;;;;;;;16.71;63.78;102313.19;5008978;28;20040;-65
2022/07/18 01:52:47;;;;;;;10.82;8.52;;;;;;;16.74;63.92;102307.69;5022594;28;20117;-65
2022/07/18 01:55:12;;;;;;;12.95;8.35;;;;;;;16.75;64.40;102319.00;5017621;28;20477;-68
2022/07/18 01:57:38;;;;;;;11.60;8.20;;;;;;;16.65;64.46;102318.91;5025675;28;20511;-66
2022/07/18 02:00:06;;;;;;;10.90;8.63;;;;;;;16.67;65.09;102306.50;5026718;28;20584;-67
2022/07/18 02:02:32;;;;;;;12.25;8.68;;;;;;;16.62;65.04;102304.25;5022292;28;20470;-64
2022/07/18 02:05:00;;;;;;;10.50;8.60;;;;;;;16.52;65.54;102285.06;5022350;28;20065;-65
2022/07/18 02:07:34;;;;;;;10.10;8.60;;;;;;;16.66;65.41;102304.84;5024936;28;20025;-65
2022/07/18 02:10:01;;;;;;;10.55;8.68;;;;;;;16.61;65.85;102291.31;5014350;28;20394;-65
2022/07/18 02:12:27;;;;;;;10.93;8.60;;;;;;;16.61;65.67;102296.53;5023488;28;20483;-64
2022/07/18 02:14:53;;;;;;;10.52;8.30;;;;;;;16.50;66.02;102286.13;5024952;28;20060;-65
2022/07/18 02:17:19;;;;;;;11.75;8.55;;;;;;;16.57;65.70;102287.28;5024320;28;20061;-65
2022/07/18 02:19:44;;;;;;;12.30;8.68;;;;;;;16.41;65.92;102279.88;5026358;28;20037;-65
2022/07/18 02:22:10;;;;;;;12.52;8.32;;;;;;;16.47;65.89;102284.63;5019633;28;20030;-65
2022/07/18 02:24:35;;;;;;;13.57;9.23;;;;;;;16.45;65.53;102282.09;5019412;28;20036;-68
2022/07/18 02:27:00;;;;;;;11.23;8.32;;;;;;;16.41;65.59;102285.94;5013135;28;20045;-64
2022/07/18 02:29:26;;;;;;;10.30;8.20;;;;;;;16.36;64.64;102277.66;5014974;28;20022;-64
2022/07/18 02:31:51;;;;;;;10.90;8.05;;;;;;;16.36;64.57;102282.88;5014075;28;20013;-65
2022/07/18 02:34:17;;;;;;;10.15;8.32;;;;;;;16.34;65.50;102279.53;5011162;28;20030;-64
2022/07/18 02:36:42;;;;;;;11.77;8.55;;;;;;;16.36;65.01;102272.41;5021244;28;20025;-68
2022/07/18 02:39:09;;;;;;;12.23;8.38;;;;;;;16.29;65.25;102276.50;5027729;28;20462;-66
2022/07/18 02:41:34;;;;;;;10.55;7.93;;;;;;;16.29;65.56;102276.50;5028806;28;20033;-68
2022/07/18 02:44:00;;;;;;;10.00;8.02;;;;;;;16.23;66.11;102276.16;5018554;28;20302;-65
2022/07/18 02:46:26;;;;;;;11.98;8.50;;;;;;;16.22;66.09;102270.09;5028421;28;20032;-64
2022/07/18 02:48:51;;;;;;;10.77;8.00;;;;;;;16.27;65.81;102270.53;5027682;28;20025;-65
2022/07/18 02:51:16;;;;;;;11.07;8.60;;;;;;;16.24;66.14;102262.97;5024224;28;20055;-64
2022/07/18 02:53:42;;;;;;;11.25;8.15;;;;;;;16.16;66.74;102254.88;5019048;28;20470;-65
2022/07/18 02:56:07;;;;;;;10.43;8.10;;;;;;;16.21;66.39;102268.44;5023884;28;20045;-65
2022/07/18 02:58:33;;;;;;;12.65;8.68;;;;;;;16.16;66.36;102265.34;5021419;28;20053;-65
2022/07/18 03:00:59;;;;;;;11.65;8.52;;;;;;;16.11;66.03;102272.75;5018283;28;20057;-65
2022/07/18 03:03:24;;;;;;;12.90;8.23;;;;;;;16.06;66.10;102256.63;5027110;28;20044;-65
2022/07/18 03:05:50;;;;;;;11.38;8.63;;;;;;;16.04;66.16;102271.59;5028097;28;20108;-64
2022/07/18 03:08:15;;;;;;;10.77;8.18;;;;;;;16.08;66.34;102275.63;5023187;28;20049;-64
2022/07/18 03:10:40;;;;;;;11.40;8.15;;;;;;;15.98;66.18;102261.63;5017197;28;20469;-65
2022/07/18 03:13:06;;;;;;;10.85;7.50;;;;;;;16.03;66.19;102269.94;5031496;28;20029;-65
2022/07/18 03:15:31;;;;;;;10.80;7.97;;;;;;;15.99;66.30;102269.34;5028567;28;20164;-64
2022/07/18 03:17:57;;;;;;;12.85;8.30;;;;;;;16.01;66.61;102269.25;5028798;28;20132;-66
2022/07/18 03:20:22;;;;;;;11.32;8.40;;;;;;;15.90;66.16;102257.88;5027589;28;20119;-64
2022/07/18 03:22:47;;;;;;;11.98;8.50;;;;;;;15.96;66.27;102268.78;5016972;28;20040;-65
2022/07/18 03:25:14;;;;;;;10.85;8.55;;;;;;;15.95;66.67;102261.91;5027329;28;20042;-64
2022/07/18 03:27:39;;;;;;;11.70;8.50;;;;;;;15.92;66.40;102262.97;5026948;28;20029;-65
2022/07/18 03:30:05;;;;;;;10.57;7.97;;;;;;;15.84;66.51;102247.06;5027199;28;20083;-64
2022/07/18 03:32:31;;;;;;;10.88;8.32;;;;;;;15.84;67.11;102250.53;5026458;28;20025;-65
2022/07/18 03:34:56;;;;;;;10.38;8.20;;;;;;;15.77;66.83;102244.13;5018065;28;20053;-66
2022/07/18 03:37:21;;;;;;;10.02;7.93;;;;;;;15.82;67.55;102252.41;5027497;28;20033;-64
2022/07/18 03:39:47;;;;;;;11.38;8.43;;;;;;;15.80;67.51;102243.88;5020685;28;20045;-65
2022/07/18 03:42:12;;;;;;;10.40;8.50;;;;;;;15.83;67.77;102251.47;5027336;28;20105;-64
2022/07/18 03:44:37;;;;;;;10.27;8.57;;;;;;;15.86;67.93;102243.38;5026699;28;20076;-64
2022/07/18 03:47:03;;;;;;;11.77;8.52;;;;;;;15.85;68.26;102235.66;5018862;28;20470;-68
2022/07/18 03:49:28;;;;;;;10.20;8.35;;;;;;;15.85;68.76;102226.00;5020870;28;20056;-65
2022/07/18 03:51:55;;;;;;;11.80;9.10;;;;;;;15.83;69.68;102232.34;5015474;28;20033;-64
2022/07/18 03:54:21;;;;;;;10.98;9.07;;;;;;;15.84;69.47;102224.34;5023220;28;20036;-65
2022/07/18 03:56:47;;;;;;;11.32;8.85;;;;;;;15.83;70.03;102220.09;5025426;28;20419;-66
2022/07/18 03:59:12;;;;;;;10.82;8.45;;;;;;;15.88;69.96;102227.53;5020212;28;20033;-64
2022/07/18 04:01:38;;;;;;;10.70;8.80;;;;;;;15.82;70.24;102223.63;5023490;28;20470;-65
2022/07/18 04:04:03;;;;;;;11.15;8.90;;;;;;;15.83;70.28;102238.41;5023021;28;20063;-65
2022/07/18 04:06:28;;;;;;;11.43;9.10;;;;;;;15.87;70.05;102233.72;5018862;28;20071;-64
2022/07/18 04:08:54;;;;;;;11.80;9.10;;;;;;;15.73;69.86;102206.09;5013116;28;20033;-65
2022/07/18 04:11:23;;;;;;;12.10;8.93;;;;;;;15.82;69.69;102239.31;5017724;28;20036;-64
2022/07/18 04:13:51;;;;;;;10.27;8.38;;;;;;;15.82;69.44;102235.88;5017556;28;20022;-64
2022/07/18 04:16:16;;;;;;;10.50;8.07;;;;;;;15.78;69.88;102235.31;5019837;28;20086;-67
2022/07/18 04:18:42;;;;;;;10.82;8.30;;;;;;;15.80;69.02;102227.34;5019497;28;20552;-64
2022/07/18 04:21:07;;;;;;;11.70;8.55;;;;;;;15.76;68.13;102226.75;5018509;28;20041;-65
2022/07/18 04:23:33;;;;;;;11.50;8.70;;;;;;;15.75;68.17;102212.00;5023228;28;20029;-65
2022/07/18 04:25:58;;;;;;;12.75;8.23;;;;;;;15.82;68.48;102215.78;5011610;28;20127;-64
2022/07/18 04:28:24;;;;;;;12.43;8.18;;;;;;;15.81;68.86;102218.53;5021911;28;20028;-64
2022/07/18 04:30:50;;;;;;;10.60;8.20;;;;;;;15.80;69.00;102207.25;5023750;28;20079;-66
2022/07/18 04:33:15;;;;;;;10.50;8.15;;;;;;;15.78;69.00;102203.94;5022890;28;20025;-64
2022/07/18 04:35:41;;;;;;;9.75;8.45;;;;;;;15.84;68.35;102213.88;5020040;28;20034;-66
2022/07/18 04:38:09;;;;;;;11.80;8.52;;;;;;;15.80;68.07;102222.94;5024499;28;20053;-64
2022/07/18 04:40:34;;;;;;;11.15;8.38;;;;;;;15.76;68.48;102218.91;5017127;28;20021;-68
2022/07/18 04:43:00;;;;;;;11.70;9.05;;;;;;;15.83;68.63;102216.63;5023457;28;20462;-66
2022/07/18 04:45:25;;;;;;;11.52;8.73;;;;;;;15.86;68.52;102206.72;5020044;28;20799;-65
2022/07/18 04:47:53;;;;;;;11.45;9.18;;;;;;;15.85;68.74;102212.09;5026479;28;20500;-64
2022/07/18 04:50:19;;;;;;;11.40;8.57;;;;;;;15.89;68.49;102209.13;5016516;28;20026;-65
2022/07/18 04:52:46;;;;;;;10.82;8.88;;;;;;;15.87;68.79;102202.34;5020802;28;20021;-65
2022/07/18 04:55:13;;;;;;;10.60;8.82;;;;;;;16.03;67.65;102209.75;5022662;28;20049;-64
2022/07/18 04:57:38;;;;;;;10.60;8.75;;;;;;;16.01;67.78;102209.06;5023831;28;20429;-64
2022/07/18 05:00:10;;;;;;;12.93;9.77;;;;;;;16.06;67.51;102209.50;5022555;28;20025;-64
2022/07/18 05:02:42;;;;;;;12.85;9.27;;;;;;;16.08;66.89;102210.22;5015972;28;20041;-66
2022/07/18 05:05:10;;;;;;;11.25;8.88;;;;;;;16.17;66.83;102209.44;5021107;28;20803;-64
2022/07/18 05:07:36;;;;;;;11.77;9.13;;;;;;;16.15;66.03;102208.72;5018884;28;20049;-64
2022/07/18 05:10:07;;;;;;;11.43;9.27;;;;;;;16.14;66.37;102199.22;5018874;28;20076;-64
2022/07/18 05:12:32;;;;;;;12.65;9.32;;;;;;;16.30;65.93;102204.84;5026661;28;20496;-66
2022/07/18 05:14:57;;;;;;;13.30;9.52;;;;;;;16.25;66.29;102186.06;5023952;28;20022;-64
2022/07/18 05:17:23;;;;;;;12.63;9.40;;;;;;;16.37;65.53;102200.75;5024930;28;20504;-65
2022/07/18 05:19:48;;;;;;;12.10;9.18;;;;;;;16.42;65.68;102198.56;5025084;28;20469;-64
2022/07/18 05:22:13;;;;;;;12.32;8.95;;;;;;;16.45;65.92;102206.16;5024695;28;20029;-67
2022/07/18 05:24:39;;;;;;;14.77;9.25;;;;;;;16.46;65.16;102205.22;5025957;28;20025;-64
2022/07/18 05:27:04;;;;;;;11.43;8.93;;;;;;;16.48;65.38;102202.47;5018183;28;20029;-65
2022/07/18 05:29:30;;;;;;;11.93;8.85;;;;;;;16.49;65.76;102192.81;5020046;28;20057;-64
2022/07/18 05:31:56;;;;;;;13.63;8.60;;;;;;;16.58;65.03;102207.75;5024531;28;20049;-67
2022/07/18 05:34:21;;;;;;;10.90;8.00;;;;;;;16.57;64.97;102206.91;5023986;28;20030;-66
2022/07/18 05:36:46;;;;;;;9.88;7.97;;;;;;;16.68;64.87;102213.84;5020858;28;20378;-64
2022/07/18 05:39:12;;;;;;;11.27;7.38;;;;;;;16.65;64.82;102201.03;5016369;28;20029;-68
2022/07/18 05:41:37;;;;;;;13.38;8.18;;;;;;;16.67;65.09;102197.31;5017853;28;20021;-68
2022/07/18 05:44:03;;;;;;;10.85;7.43;;;;;;;16.77;64.17;102207.88;5023023;28;20034;-65
2022/07/18 05:46:28;;;;;;;9.02;7.07;;;;;;;16.84;64.80;102208.16;5016492;28;20034;-65
2022/07/18 05:48:54;;;;;;;8.77;6.85;;;;;;;16.84;64.35;102209.00;5020597;28;20496;-64
2022/07/18 05:51:20;;;;;;;10.48;6.90;;;;;;;16.95;64.18;102227.25;5022160;28;20071;-64
2022/07/18 05:53:46;;;;;;;10.93;7.30;;;;;;;16.96;64.42;102223.66;5019208;28;20026;-63
2022/07/18 05:56:12;;;;;;;9.63;6.30;;;;;;;17.02;64.94;102217.03;5014244;28;20049;-66
2022/07/18 05:58:37;;;;;;;10.70;7.28;;;;;;;17.13;63.93;102224.81;5011880;28;20064;-64
2022/07/18 06:01:03;;;;;;;9.82;7.10;;;;;;;17.23;64.26;102214.34;5017018;28;20509;-63
2022/07/18 06:03:28;;;;;;;9.25;7.13;;;;;;;17.29;63.56;102216.44;5019180;28;20418;-65
2022/07/18 06:05:53;;;;;;;12.00;6.80;;;;;;;17.29;63.54;102192.00;5020855;28;20029;-65
2022/07/18 06:08:19;;;;;;;9.50;6.80;;;;;;;17.46;62.73;102199.22;5018810;28;20033;-64
2022/07/18 06:10:44;;;;;;;11.25;6.68;;;;;;;17.59;62.09;102206.81;5020946;28;20071;-65
2022/07/18 06:13:09;;;;;;;10.23;6.15;;;;;;;17.67;61.72;102212.22;5011848;28;20508;-64
2022/07/18 06:15:35;;;;;;;8.90;5.85;;;;;;;17.69;61.34;102189.28;5020182;28;20080;-64
2022/07/18 06:18:00;;;;;;;10.68;6.05;;;;;;;17.85;60.27;102192.22;5016608;28;20040;-64
2022/07/18 06:20:26;;;;;;;8.77;5.50;;;;;;;17.90;60.43;102197.88;5021510;28;20071;-64
2022/07/18 06:22:51;;;;;;;10.10;6.20;;;;;;;17.99;59.85;102190.94;5023373;28;20061;-63
2022/07/18 06:25:16;;;;;;;9.63;6.15;;;;;;;18.07;59.60;102192.88;5021607;28;20067;-67
2022/07/18 06:27:42;;;;;;;9.35;6.22;;;;;;;18.13;59.60;102187.06;5022788;28;20076;-68
2022/07/18 06:30:09;;;;;;;10.00;6.15;;;;;;;18.21;59.43;102181.91;5018904;28;20381;-64
2022/07/18 06:32:35;;;;;;;9.60;6.60;;;;;;;18.25;59.05;102164.91;5020060;28;20026;-67
2022/07/18 06:35:00;;;;;;;10.55;6.63;;;;;;;18.37;58.99;102171.66;5021800;28;20449;-67
2022/07/18 06:37:26;;;;;;;10.15;6.70;;;;;;;18.47;58.96;102167.19;5025279;28;20462;-64
2022/07/18 06:39:51;;;;;;;9.48;6.78;;;;;;;18.67;59.19;102175.00;5016684;28;20037;-64
2022/07/18 06:42:16;;;;;;;9.38;6.78;;;;;;;18.81;58.40;102177.19;5014238;28;20036;-64
2022/07/18 06:44:42;;;;;;;9.45;6.80;;;;;;;18.85;57.49;102183.78;5021930;28;20022;-66
2022/07/18 06:47:07;;;;;;;11.27;6.85;;;;;;;18.94;57.49;102182.09;5017510;28;20037;-64
2022/07/18 06:49:32;;;;;;;12.20;7.43;;;;;;;19.02;57.73;102196.16;5024080;28;20059;-65
2022/07/18 06:51:58;;;;;;;9.98;7.07;;;;;;;19.04;57.17;102178.44;5008940;28;20033;-66
2022/07/18 06:54:27;;;;;;;9.57;6.75;;;;;;;19.29;57.12;102189.22;5011518;28;20029;-66
2022/07/18 06:56:56;;;;;;;9.82;6.90;;;;;;;19.31;56.81;102174.91;5016240;28;20037;-63
2022/07/18 06:59:22;;;;;;;10.25;6.10;;;;;;;19.55;56.56;102186.66;5021453;28;20025;-66
2022/07/18 07:01:48;;;;;;;10.55;6.95;;;;;;;19.57;56.43;102175.00;5025430;28;20029;-67
2022/07/18 07:04:13;;;;;;;9.77;7.13;;;;;;;19.70;56.67;102179.09;5025703;28;20032;-72
2022/07/18 07:06:38;;;;;;;13.15;6.85;;;;;;;19.79;56.46;102175.56;5022351;28;20126;-64
2022/07/18 07:09:05;;;;;;;9.45;6.88;;;;;;;19.89;56.07;102176.25;5023476;28;20261;-64
2022/07/18 07:11:31;;;;;;;11.82;6.32;;;;;;;20.09;55.63;102185.66;5026780;28;20496;-64
2022/07/18 07:13:56;;;;;;;12.60;6.55;;;;;;;20.27;54.79;102176.84;5014172;28;20117;-65
2022/07/18 07:16:21;;;;;;;9.90;6.45;;;;;;;20.32;54.82;102175.41;5014082;28;20405;-66
2022/07/18 07:18:47;;;;;;;12.00;6.13;;;;;;;20.61;53.63;102190.91;5019302;28;20488;-64
2022/07/18 07:21:13;;;;;;;10.82;5.63;;;;;;;20.72;53.42;102186.34;5019665;28;20044;-70
2022/07/18 07:23:40;;;;;;;9.05;6.07;;;;;;;20.86;51.59;102183.91;5018414;28;20389;-65
2022/07/18 07:26:06;;;;;;;11.63;6.22;;;;;;;21.07;52.38;102196.69;5016953;28;20025;-67
2022/07/18 07:28:31;;;;;;;10.68;6.05;;;;;;;21.16;52.69;102184.31;5018203;28;20037;-65
2022/07/18 07:30:57;;;;;;;12.75;5.80;;;;;;;21.13;52.09;102164.38;5017383;28;20469;-66
2022/07/18 07:33:22;;;;;;;9.75;5.80;;;;;;;21.30;52.00;102175.00;5015883;28;20075;-65
2022/07/18 07:35:47;;;;;;;11.13;5.75;;;;;;;21.33;51.88;102158.81;5024734;28;20018;-64
2022/07/18 07:38:18;;;;;;;13.18;5.60;;;;;;;21.55;51.77;102163.47;5016610;28;20044;-72
2022/07/18 07:40:43;;;;;;;10.25;5.80;;;;;;;21.74;51.16;102157.88;5015451;28;20470;-67
2022/07/18 07:43:12;;;;;;;9.05;5.70;;;;;;;21.85;51.29;102158.50;5020947;28;20126;-65
2022/07/18 07:45:38;;;;;;;8.73;4.80;;;;;;;22.00;50.55;102151.53;5017029;28;20068;-65
2022/07/18 07:48:04;;;;;;;9.95;4.80;;;;;;;22.07;50.29;102144.59;5021449;28;20434;-66
2022/07/18 07:50:30;;;;;;;10.45;4.75;;;;;;;22.34;48.50;102137.28;5017194;28;20471;-66
2022/07/18 07:52:59;;;;;;;10.43;4.95;;;;;;;22.33;48.37;102138.28;5024123;28;20071;-63
2022/07/18 07:55:25;;;;;;;9.18;5.47;;;;;;;22.39;49.19;102142.88;5020923;28;20494;-68
2022/07/18 07:57:51;;;;;;;9.40;5.10;;;;;;;22.56;48.99;102144.47;5018744;28;20033;-64
2022/07/18 08:00:16;;;;;;;10.98;4.75;;;;;;;22.78;46.97;102156.94;5024788;28;20029;-71
2022/07/18 08:03:03;;;;;;;8.40;5.05;;;;;;;22.87;48.58;102159.53;5024439;28;20040;-68
2022/07/18 08:05:30;;;;;;;8.63;4.40;;;;;;;23.06;45.39;102156.47;5016320;28;20030;-66
2022/07/18 08:07:58;;;;;;;8.18;4.05;;;;;;;23.06;44.62;102153.84;5025051;28;20025;-64
2022/07/18 08:10:23;;;;;;;8.77;4.23;;;;;;;23.24;43.30;102159.66;5016572;28;20041;-66
2022/07/18 08:12:48;;;;;;;8.35;3.85;;;;;;;23.30;43.66;102158.94;5019482;28;20450;-66
2022/07/18 08:15:14;;;;;;;8.70;4.32;;;;;;;23.48;42.01;102150.72;5016670;28;20025;-65
2022/07/18 08:17:39;;;;;;;7.07;3.28;;;;;;;23.54;43.61;102149.16;5018817;28;20029;-66
2022/07/18 08:20:06;;;;;;;9.50;4.25;;;;;;;23.66;43.83;102163.66;5026005;28;20018;-66
2022/07/18 08:22:31;;;;;;;6.45;3.70;;;;;;;23.76;43.06;102161.59;5017703;28;20033;-64
2022/07/18 08:24:56;;;;;;;6.93;3.70;;;;;;;23.80;41.26;102168.19;5017833;28;20370;-66
2022/07/18 08:27:22;;;;;;;6.22;4.13;;;;;;;23.92;42.27;102175.69;5027005;28;20470;-64
2022/07/18 08:29:47;;;;;;;7.47;3.60;;;;;;;24.01;44.54;102177.25;5027428;28;20108;-65
2022/07/18 08:32:13;;;;;;;9.32;4.63;;;;;;;24.08;42.07;102176.34;5015867;28;20060;-65
2022/07/18 08:34:38;;;;;;;8.40;4.38;;;;;;;24.18;42.01;102169.94;5017275;28;20075;-65
2022/07/18 08:37:04;;;;;;;9.32;4.47;;;;;;;24.18;41.25;102165.47;5012257;28;20029;-66
2022/07/18 08:39:29;;;;;;;6.65;4.15;;;;;;;24.26;41.52;102172.53;5026251;28;20017;-68
2022/07/18 08:41:56;;;;;;;7.55;3.85;;;;;;;24.26;43.30;102167.22;5027331;28;20483;-65
2022/07/18 08:44:21;;;;;;;9.90;4.40;;;;;;;24.46;41.45;102154.25;5024355;28;20037;-65
2022/07/18 08:46:51;;;;;;;8.73;3.95;;;;;;;24.60;40.71;102153.41;5025031;28;20030;-67
2022/07/18 08:49:17;;;;;;;8.32;3.80;;;;;;;24.76;41.17;102147.88;5025673;28;20029;-65
2022/07/18 08:51:44;;;;;;;6.80;3.65;;;;;;;24.96;40.69;102148.13;5010745;28;20034;-70
2022/07/18 08:54:10;;;;;;;7.45;3.63;;;;;;;25.01;42.42;102139.59;5021831;28;20030;-65
2022/07/18 08:56:35;;;;;;;9.70;4.30;;;;;;;25.18;39.79;102138.38;5026083;28;20107;-69
2022/07/18 08:59:02;;;;;;;8.57;4.90;;;;;;;25.17;41.21;102139.34;5025958;28;20412;-67
2022/07/18 09:01:31;;;;;;;7.70;4.68;;;;;;;25.12;38.53;102142.59;5020984;28;20484;-65
2022/07/18 09:04:16;;;;;;;8.82;4.47;;;;;;;25.31;38.86;102141.13;5020846;28;20638;-65
2022/07/18 09:06:46;;;;;;;7.75;4.25;;;;;;;25.50;39.90;102154.78;5026719;28;20129;-67
2022/07/18 09:09:14;;;;;;;15.05;5.10;;;;;;;25.81;38.73;102141.97;5025970;28;20026;-66
2022/07/18 09:11:54;;;;;;;9.57;4.22;;;;;;;25.94;39.67;102151.88;5027730;28;20033;-71
2022/07/18 09:14:36;;;;;;;10.77;4.20;;;;;;;25.93;40.88;102150.22;5025955;28;20029;-65
2022/07/18 09:17:02;;;;;;;9.55;5.03;;;;;;;26.00;37.76;102150.28;5025778;28;20030;-71
2022/07/18 09:19:28;;;;;;;8.95;5.28;;;;;;;26.06;37.07;102138.84;5025640;28;20033;-64
2022/07/18 09:21:53;;;;;;;7.65;4.20;;;;;;;26.13;36.99;102143.19;5026313;28;20044;-69
2022/07/18 09:24:18;;;;;;;8.15;4.50;;;;;;;26.03;39.21;102136.56;5024204;28;20433;-66
2022/07/18 09:26:46;;;;;;;8.88;4.00;;;;;;;26.21;40.36;102152.84;5026872;28;20037;-64
2022/07/18 09:29:16;;;;;;;9.57;5.25;;;;;;;26.18;37.49;102153.25;5020185;28;20470;-66
2022/07/18 09:31:51;;;;;;;10.27;5.50;;;;;;;26.30;38.33;102151.66;5013217;28;20230;-65
2022/07/18 09:34:33;;;;;;;9.60;5.13;;;;;;;26.33;38.12;102148.63;5012703;28;20029;-66
2022/07/18 09:36:58;;;;;;;9.95;4.85;;;;;;;26.40;38.47;102146.81;5021205;28;20123;-65
2022/07/18 09:39:24;;;;;;;11.15;4.50;;;;;;;26.55;38.50;102153.84;5019947;28;20462;-65
2022/07/18 09:41:49;;;;;;;8.73;4.57;;;;;;;26.72;38.19;102155.13;5016068;28;20033;-66
2022/07/18 09:44:16;;;;;;;9.90;5.68;;;;;;;26.68;36.58;102154.72;5015748;28;20033;-72
2022/07/18 09:47:04;;;;;;;10.73;6.07;;;;;;;26.84;37.35;102153.56;5017067;28;20367;-70
2022/07/18 09:49:39;;;;;;;11.25;6.80;;;;;;;26.82;35.62;102152.91;5022103;28;20033;-68
2022/07/18 09:52:07;;;;;;;12.55;6.63;;;;;;;26.88;36.51;102149.44;5024475;28;20450;-66
2022/07/18 09:54:51;;;;;;;9.75;6.60;;;;;;;27.29;36.67;102156.50;5011715;28;20022;-65
2022/07/18 09:57:25;;;;;;;8.85;5.40;;;;;;;27.04;38.13;102152.78;5024097;28;20385;-66
2022/07/18 09:59:51;;;;;;;10.10;5.68;;;;;;;26.97;35.68;102142.94;5022893;28;20040;-65
2022/07/18 10:02:16;;;;;;;10.02;4.53;;;;;;;27.10;38.33;102139.50;5017739;28;20041;-69
2022/07/18 10:04:43;;;;;;;9.68;5.07;;;;;;;26.99;36.12;102156.03;5018435;28;20512;-66
2022/07/18 10:07:09;;;;;;;8.00;4.75;;;;;;;27.06;36.20;102140.06;5019933;28;20022;-65
2022/07/18 10:09:34;;;;;;;10.18;6.13;;;;;;;26.96;34.84;102135.97;5013789;28;20044;-69
2022/07/18 10:12:00;;;;;;;8.52;5.50;;;;;;;27.08;36.58;102143.41;5021559;28;20025;-65
2022/07/18 10:14:27;;;;;;;8.68;5.97;;;;;;;27.22;35.14;102139.72;5016740;28;20068;-71
2022/07/18 10:16:54;;;;;;;11.40;7.90;;;;;;;27.13;34.83;102131.09;5023082;28;20083;-65
2022/07/18 10:19:19;;;;;;;10.75;6.60;;;;;;;27.37;36.08;102137.69;5019547;28;20036;-69
2022/07/18 10:21:48;;;;;;;8.98;5.40;;;;;;;27.49;38.43;102138.69;5019370;28;20382;-65
2022/07/18 10:24:17;;;;;;;7.65;4.95;;;;;;;27.52;36.31;102132.94;5021443;28;20100;-67
2022/07/18 10:26:42;;;;;;;10.15;4.90;;;;;;;27.68;37.74;102123.69;5018676;28;20516;-66
2022/07/18 10:29:09;;;;;;;8.63;4.63;;;;;;;27.92;35.74;102124.91;5023748;28;20017;-66
2022/07/18 10:31:41;;;;;;;12.82;5.38;;;;;;;28.03;36.04;102132.28;5021424;28;20033;-66
2022/07/18 10:34:06;;;;;;;9.35;4.63;;;;;;;28.00;35.45;102132.72;5021879;28;20049;-66
2022/07/18 10:36:36;;;;;;;7.68;4.20;;;;;;;28.03;35.34;102126.94;5019747;28;20462;-66
2022/07/18 10:39:08;;;;;;;8.38;3.97;;;;;;;28.10;34.86;102132.28;5022299;28;20041;-66
2022/07/18 10:41:46;;;;;;;8.48;4.85;;;;;;;27.94;35.09;102125.53;5024257;28;20561;-66
2022/07/18 10:44:26;;;;;;;7.28;5.53;;;;;;;28.20;34.58;102126.47;5034238;23;20548;-76
2022/07/18 10:47:08;;;;;;;10.30;4.25;;;;;;;28.07;34.48;102127.34;5013843;28;20021;-77
2022/07/18 10:49:46;;;;;;;7.00;3.83;;;;;;;28.14;35.24;102127.31;5012609;28;20045;-76
2022/07/18 10:52:26;;;;;;;6.20;3.10;;;;;;;28.32;34.90;102135.50;5019056;28;20465;-76
2022/07/18 10:55:21;;;;;;;8.63;3.20;;;;;;;28.36;34.36;102125.22;5033491;28;20104;-76
2022/07/18 10:57:49;;;;;;;7.00;2.80;;;;;;;28.53;34.63;102127.19;5018254;28;20033;-76
2022/07/18 11:00:15;;;;;;;5.57;3.13;;;;;;;28.51;32.86;102125.78;5021049;28;20033;-76
2022/07/18 11:02:42;;;;;;;7.10;2.70;;;;;;;28.57;35.68;102116.94;5020856;28;20033;-76
2022/07/18 11:05:22;;;;;;;7.88;2.90;;;;;;;28.62;33.82;102124.28;5016007;28;20027;-76
2022/07/18 11:08:06;;;;;;;5.45;2.30;;;;;;;28.84;35.38;102118.38;5018306;28;20080;-76
2022/07/18 11:11:17;;;;;;;6.60;2.80;;;;;;;28.81;31.98;102123.34;5017928;28;20383;-76
2022/07/18 11:13:40;;;;;;;7.97;2.90;;;;;;;28.71;31.36;102115.00;5017232;28;20037;-77
2022/07/18 11:16:15;;;;;;;6.63;2.90;;;;;;;29.18;32.20;102111.00;5017871;28;20488;-76
2022/07/18 11:18:40;;;;;;;6.00;2.30;;;;;;;29.41;32.25;102107.72;5015491;28;20033;-76
2022/07/18 11:21:29;;;;;;;5.95;2.30;;;;;;;29.55;32.93;102103.91;5015016;28;20036;-76